createdAt,value
2023-04-19T00:01:47.629Z,13.70
2023-04-19T00:04:18.730Z,9.60
2023-04-19T00:06:49.695Z,11.20
2023-04-19T00:09:20.293Z,13.00
2023-04-19T00:11:51.002Z,10.70
2023-04-19T00:14:21.634Z,10.10
2023-04-19T00:16:52.322Z,12.00
2023-04-19T00:19:23.018Z,7.50
2023-04-19T00:21:53.739Z,14.10
2023-04-19T00:24:24.370Z,7.80
2023-04-19T00:26:55.045Z,11.70
2023-04-19T00:29:25.692Z,11.30
2023-04-19T00:31:56.316Z,9.50
2023-04-19T00:34:26.959Z,9.50
2023-04-19T00:36:57.872Z,7.50
2023-04-19T00:39:28.496Z,9.30
2023-04-19T00:41:59.121Z,7.10
2023-04-19T00:44:29.954Z,9.80
2023-04-19T00:47:01.755Z,8.70
2023-04-19T00:49:32.507Z,10.40
2023-04-19T00:52:03.243Z,8.80
2023-04-19T00:54:34.713Z,8.30
2023-04-19T00:57:05.813Z,7.20
2023-04-19T01:02:05.770Z,8.90
2023-04-19T01:04:36.868Z,10.90
2023-04-19T01:09:39.635Z,7.70
2023-04-19T01:12:10.849Z,7.40
2023-04-19T01:14:41.476Z,6.50
2023-04-19T01:17:12.850Z,6.40
2023-04-19T01:19:43.483Z,7.50
2023-04-19T01:22:19.756Z,8.70
2023-04-19T01:24:50.467Z,5.20
2023-04-19T01:27:21.137Z,6.20
2023-04-19T01:29:51.846Z,6.60
2023-04-19T01:32:22.530Z,7.40
2023-04-19T01:34:53.455Z,5.10
2023-04-19T01:37:24.097Z,7.10
2023-04-19T01:39:54.819Z,4.50
2023-04-19T01:42:25.478Z,5.20
2023-04-19T01:44:56.124Z,6.00
2023-04-19T01:47:27.321Z,6.20
2023-04-19T01:49:58.683Z,5.90
2023-04-19T01:52:29.371Z,6.80
2023-04-19T01:55:00.166Z,6.20
2023-04-19T01:57:31.287Z,8.30
2023-04-19T02:02:32.070Z,6.90
2023-04-19T02:05:02.790Z,14.50
2023-04-19T02:07:33.477Z,8.00
2023-04-19T02:10:04.535Z,8.80
2023-04-19T02:12:36.071Z,9.40
2023-04-19T02:15:11.162Z,7.10
2023-04-19T02:17:41.884Z,7.20
2023-04-19T02:20:12.819Z,6.20
2023-04-19T02:22:43.471Z,7.60
2023-04-19T02:25:14.235Z,7.30
2023-04-19T02:27:44.898Z,5.00
2023-04-19T02:30:17.514Z,6.90
2023-04-19T02:32:49.162Z,6.20
2023-04-19T02:35:19.846Z,8.40
2023-04-19T02:37:50.500Z,7.50
2023-04-19T02:40:21.256Z,5.60
2023-04-19T02:42:52.124Z,8.50
2023-04-19T02:45:22.771Z,8.10
2023-04-19T02:47:53.743Z,6.70
2023-04-19T02:50:25.854Z,6.50
2023-04-19T02:52:57.515Z,7.50
2023-04-19T02:55:28.158Z,13.10
2023-04-19T02:57:58.807Z,10.40
2023-04-19T03:00:29.582Z,7.50
2023-04-19T03:03:00.370Z,8.90
2023-04-19T03:05:31.090Z,5.30
2023-04-19T03:08:01.801Z,8.50
2023-04-19T03:10:32.470Z,7.20
2023-04-19T03:13:03.112Z,7.60
2023-04-19T03:15:33.702Z,8.50
2023-04-19T03:18:04.649Z,8.30
2023-04-19T03:20:35.318Z,8.20
2023-04-19T03:23:06.019Z,9.50
2023-04-19T03:25:36.638Z,8.40
2023-04-19T03:28:07.404Z,11.10
2023-04-19T03:30:38.014Z,10.70
2023-04-19T03:33:08.742Z,18.40
2023-04-19T03:35:39.436Z,18.90
2023-04-19T03:38:10.094Z,19.40
2023-04-19T03:40:40.773Z,15.30
2023-04-19T03:43:11.418Z,18.50
2023-04-19T03:45:41.996Z,17.60
2023-04-19T03:48:12.638Z,12.90
2023-04-19T03:50:43.726Z,8.80
2023-04-19T03:53:14.449Z,6.00
2023-04-19T03:55:45.658Z,9.10
2023-04-19T03:58:16.287Z,9.70
2023-04-19T04:00:46.934Z,8.90
2023-04-19T04:03:17.767Z,9.30
2023-04-19T04:08:17.715Z,8.60
2023-04-19T04:10:48.348Z,10.50
2023-04-19T04:13:19.080Z,11.50
2023-04-19T04:15:49.894Z,13.30
2023-04-19T04:18:20.700Z,8.10
2023-04-19T04:20:51.315Z,15.70
2023-04-19T04:23:21.914Z,7.10
2023-04-19T04:25:59.275Z,6.80
2023-04-19T04:28:30.301Z,8.80
2023-04-19T04:31:00.953Z,7.90
2023-04-19T04:33:31.736Z,8.40
2023-04-19T04:36:02.803Z,10.00
2023-04-19T04:41:02.621Z,10.00
2023-04-19T04:43:33.989Z,11.70
2023-04-19T04:46:04.645Z,10.00
2023-04-19T04:48:35.426Z,9.50
2023-04-19T04:51:06.180Z,9.20
2023-04-19T04:53:36.885Z,10.80
2023-04-19T04:56:08.079Z,7.90
2023-04-19T04:58:38.748Z,8.60
2023-04-19T05:01:09.440Z,11.30
2023-04-19T05:03:40.182Z,9.60
2023-04-19T05:06:10.914Z,8.60
2023-04-19T05:08:41.630Z,11.70
2023-04-19T05:11:12.422Z,13.50
2023-04-19T05:13:43.254Z,10.70
2023-04-19T05:16:14.073Z,7.40
2023-04-19T05:18:45.417Z,7.90
2023-04-19T05:21:16.603Z,8.30
2023-04-19T05:26:18.130Z,9.50
2023-04-19T05:28:49.071Z,15.80
2023-04-19T05:31:19.854Z,10.80
2023-04-19T05:33:50.694Z,8.60
2023-04-19T05:36:21.408Z,11.00
2023-04-19T05:38:52.334Z,10.70
2023-04-19T05:41:26.153Z,14.70
2023-04-19T05:43:56.872Z,14.90
2023-04-19T05:46:27.555Z,12.10
2023-04-19T05:49:00.226Z,12.20
2023-04-19T05:51:32.266Z,15.40
2023-04-19T05:54:02.972Z,14.20
2023-04-19T05:56:33.684Z,9.80
2023-04-19T05:59:06.589Z,11.50
2023-04-19T06:01:38.352Z,11.00
2023-04-19T06:04:09.420Z,13.10
2023-04-19T06:09:09.752Z,9.50
2023-04-19T06:11:50.126Z,14.30
2023-04-19T06:14:22.126Z,13.70
2023-04-19T06:19:22.102Z,11.70
2023-04-19T06:21:52.787Z,9.50
2023-04-19T06:24:23.436Z,14.20
2023-04-19T06:26:54.182Z,12.20
2023-04-19T06:29:25.312Z,12.60
2023-04-19T06:31:56.009Z,7.30
2023-04-19T06:34:27.309Z,9.80
2023-04-19T06:36:57.957Z,11.80
2023-04-19T06:39:28.844Z,10.40
2023-04-19T06:41:59.560Z,13.00
2023-04-19T06:44:30.520Z,8.20
2023-04-19T06:49:31.392Z,14.00
2023-04-19T06:52:02.046Z,10.70
2023-04-19T06:54:32.809Z,13.00
2023-04-19T06:57:03.640Z,12.10
2023-04-19T06:59:34.369Z,10.30
2023-04-19T07:02:05.267Z,9.90
2023-04-19T07:04:36.514Z,10.20
2023-04-19T07:07:07.462Z,7.20
2023-04-19T07:09:38.608Z,14.60
2023-04-19T07:12:09.378Z,12.20
2023-04-19T07:14:40.150Z,11.60
2023-04-19T07:19:40.558Z,10.40
2023-04-19T07:24:40.354Z,22.50
2023-04-19T07:27:11.132Z,15.00
2023-04-19T07:29:41.741Z,8.90
2023-04-19T07:32:12.624Z,9.00
2023-04-19T07:34:43.417Z,7.20
2023-04-19T07:37:14.041Z,9.40
2023-04-19T07:39:44.705Z,13.50
2023-04-19T07:42:16.741Z,12.30
2023-04-19T07:44:47.817Z,9.00
2023-04-19T07:47:19.156Z,11.40
2023-04-19T07:49:53.526Z,9.70
2023-04-19T07:52:24.255Z,13.10
2023-04-19T07:54:55.564Z,13.90
2023-04-19T07:57:26.174Z,16.40
2023-04-19T07:59:56.813Z,30.50
2023-04-19T08:02:38.845Z,27.60
2023-04-19T08:05:11.724Z,17.20
2023-04-19T08:07:42.642Z,13.40
2023-04-19T08:10:13.851Z,13.10
2023-04-19T08:12:57.387Z,15.20
2023-04-19T08:18:09.289Z,15.10
2023-04-19T08:20:40.161Z,11.10
2023-04-19T08:23:21.432Z,9.90
2023-04-19T08:25:55.065Z,10.70
2023-04-19T08:28:26.122Z,10.90
2023-04-19T08:33:28.355Z,13.00
2023-04-19T08:35:59.075Z,11.00
2023-04-19T08:38:29.788Z,10.60
2023-04-19T08:41:01.044Z,12.00
2023-04-19T08:43:35.820Z,13.10
2023-04-19T08:46:07.884Z,13.50
2023-04-19T08:48:39.736Z,12.30
2023-04-19T08:51:12.319Z,12.10
2023-04-19T08:53:43.457Z,12.10
2023-04-19T08:56:27.734Z,13.90
2023-04-19T08:59:18.027Z,15.30
2023-04-19T09:01:49.429Z,13.90
2023-04-19T09:04:34.479Z,18.50
2023-04-19T09:07:06.798Z,22.50
2023-04-19T09:09:45.580Z,21.60
2023-04-19T09:12:26.547Z,15.30
2023-04-19T09:17:31.073Z,12.90
2023-04-19T09:22:31.332Z,13.30
2023-04-19T09:25:35.349Z,13.90
2023-04-19T09:27:52.782Z,16.10
2023-04-19T09:30:32.343Z,17.30
2023-04-19T09:33:05.124Z,21.80
2023-04-19T09:35:46.419Z,17.90
2023-04-19T09:38:18.392Z,14.80
2023-04-19T09:40:49.088Z,16.30
2023-04-19T09:43:53.271Z,20.30
2023-04-19T09:46:33.444Z,19.80
2023-04-19T09:49:25.068Z,14.30
2023-04-19T09:52:10.250Z,46.30
2023-04-19T09:54:41.790Z,49.70
2023-04-19T09:57:12.829Z,24.00
2023-04-19T09:59:43.625Z,17.60
2023-04-19T10:02:15.960Z,17.50
2023-04-19T10:05:03.387Z,11.30
2023-04-19T10:07:38.723Z,12.30
2023-04-19T10:10:20.392Z,16.20
2023-04-19T10:15:33.835Z,14.50
2023-04-19T10:18:29.645Z,12.00
2023-04-19T10:21:07.476Z,13.10
2023-04-19T10:23:39.355Z,10.30
2023-04-19T10:26:11.423Z,11.20
2023-04-19T10:28:43.160Z,13.60
2023-04-19T10:31:16.233Z,11.30
2023-04-19T10:33:48.091Z,12.30
2023-04-19T10:36:21.087Z,9.00
2023-04-19T10:38:52.471Z,8.60
2023-04-19T10:41:23.683Z,11.50
2023-04-19T10:44:11.627Z,15.30
2023-04-19T10:46:42.516Z,12.30
2023-04-19T10:49:13.424Z,11.10
2023-04-19T10:54:31.654Z,11.50
2023-04-19T10:57:04.604Z,9.30
2023-04-19T10:59:36.571Z,10.80
2023-04-19T11:05:20.907Z,13.70
2023-04-19T11:10:30.449Z,14.90
2023-04-19T11:13:01.949Z,14.30
2023-04-19T11:15:32.761Z,20.90
2023-04-19T11:18:12.432Z,68.60
2023-04-19T11:20:45.802Z,74.90
2023-04-19T11:23:20.072Z,61.20
2023-04-19T11:25:52.672Z,39.50
2023-04-19T11:28:23.571Z,44.20
2023-04-19T11:30:56.289Z,20.60
2023-04-19T11:33:27.015Z,18.30
2023-04-19T11:35:57.722Z,17.20
2023-04-19T11:38:30.320Z,15.00
2023-04-19T11:41:02.535Z,15.70
2023-04-19T11:43:37.066Z,15.70
2023-04-19T11:46:22.861Z,14.20
2023-04-19T11:48:54.258Z,14.40
2023-04-19T11:51:27.494Z,15.50
2023-04-19T11:54:00.877Z,17.10
2023-04-19T11:56:32.155Z,15.90
2023-04-19T11:59:03.062Z,17.30
2023-04-19T12:01:33.866Z,15.60
2023-04-19T12:04:06.828Z,19.80
2023-04-19T12:06:37.837Z,14.80
2023-04-19T12:09:09.900Z,18.10
2023-04-19T12:11:47.588Z,15.60
2023-04-19T12:14:20.654Z,15.80
2023-04-19T12:17:08.913Z,14.00
2023-04-19T12:19:44.476Z,21.80
2023-04-19T12:22:17.052Z,23.60
2023-04-19T12:24:50.994Z,22.90
2023-04-19T12:27:21.718Z,20.70
2023-04-19T12:29:52.618Z,23.30
2023-04-19T12:32:23.922Z,21.50
2023-04-19T12:34:55.356Z,20.30
2023-04-19T12:37:26.208Z,20.80
2023-04-19T12:39:57.275Z,16.50
2023-04-19T12:45:07.244Z,20.70
2023-04-19T12:47:37.977Z,21.10
2023-04-19T12:50:12.148Z,23.90
2023-04-19T12:52:44.605Z,29.00
2023-04-19T12:55:15.785Z,34.60
2023-04-19T12:57:46.446Z,23.60
2023-04-19T13:00:21.237Z,24.60
2023-04-19T13:02:52.513Z,21.20
2023-04-19T13:05:23.489Z,21.70
2023-04-19T13:07:54.128Z,25.60
2023-04-19T13:10:24.792Z,26.90
2023-04-19T13:12:55.553Z,24.10
2023-04-19T13:15:26.441Z,22.30
2023-04-19T13:17:57.176Z,29.60
2023-04-19T13:20:27.955Z,26.40
2023-04-19T13:22:58.730Z,37.20
2023-04-19T13:25:29.429Z,47.40
2023-04-19T13:28:00.171Z,53.30
2023-04-19T13:30:30.906Z,35.80
2023-04-19T13:33:01.641Z,20.80
2023-04-19T13:35:32.456Z,16.70
2023-04-19T13:38:03.110Z,20.60
2023-04-19T13:40:33.933Z,20.40
2023-04-19T13:43:04.743Z,18.20
2023-04-19T13:45:35.461Z,22.90
2023-04-19T13:48:08.386Z,18.10
2023-04-19T13:50:39.158Z,17.60
2023-04-19T13:53:09.883Z,22.30
2023-04-19T13:55:40.557Z,23.90
2023-04-19T13:58:11.201Z,22.30
2023-04-19T14:00:41.991Z,23.20
2023-04-19T14:03:12.977Z,21.90
2023-04-19T14:05:43.901Z,23.90
2023-04-19T14:08:14.565Z,20.10
2023-04-19T14:10:45.224Z,21.20
2023-04-19T14:13:15.977Z,21.10
2023-04-19T14:15:46.744Z,19.90
2023-04-19T14:18:17.408Z,19.80
2023-04-19T14:20:48.195Z,18.20
2023-04-19T14:23:18.948Z,16.30
2023-04-19T14:25:49.592Z,18.60
2023-04-19T14:28:20.315Z,20.20
2023-04-19T14:30:51.016Z,17.40
2023-04-19T14:33:21.809Z,24.10
2023-04-19T14:35:52.469Z,25.60
2023-04-19T14:38:23.154Z,21.10
2023-04-19T14:40:53.779Z,28.90
2023-04-19T14:43:24.543Z,48.30
2023-04-19T14:45:55.310Z,35.90
2023-04-19T14:48:26.277Z,30.20
2023-04-19T14:53:26.323Z,18.40
2023-04-19T14:55:57.032Z,20.80
2023-04-19T14:58:27.704Z,16.60
2023-04-19T15:00:58.388Z,16.90
2023-04-19T15:03:29.425Z,18.70
2023-04-19T15:06:00.152Z,19.70
2023-04-19T15:08:31.551Z,19.10
2023-04-19T15:11:02.213Z,20.80
2023-04-19T15:13:33.078Z,26.20
2023-04-19T15:16:04.004Z,29.20
2023-04-19T15:21:04.337Z,24.70
2023-04-19T15:26:04.238Z,28.90
2023-04-19T15:28:35.354Z,35.10
2023-04-19T15:31:07.699Z,30.40
2023-04-19T15:33:38.852Z,28.90
2023-04-19T15:38:39.148Z,29.70
2023-04-19T15:41:09.795Z,32.00
2023-04-19T15:43:40.469Z,23.90
2023-04-19T15:46:14.499Z,21.60
2023-04-19T15:48:45.981Z,22.60
2023-04-19T15:51:16.639Z,23.90
2023-04-19T15:53:47.288Z,23.20
2023-04-19T15:56:18.055Z,21.70
2023-04-19T15:58:48.683Z,25.30
2023-04-19T16:01:19.523Z,28.40
2023-04-19T16:03:50.665Z,28.00
2023-04-19T16:06:21.473Z,24.30
2023-04-19T16:08:52.408Z,24.30
2023-04-19T16:11:23.340Z,25.10
2023-04-19T16:13:54.052Z,28.50
2023-04-19T16:16:26.065Z,24.20
2023-04-19T16:18:56.786Z,33.20
2023-04-19T16:21:27.688Z,26.40
2023-04-19T16:23:58.325Z,28.20
2023-04-19T16:26:29.010Z,28.00
2023-04-19T16:28:59.668Z,26.90
2023-04-19T16:31:30.387Z,22.80
2023-04-19T16:34:01.049Z,24.30
2023-04-19T16:36:32.023Z,24.30
2023-04-19T16:41:32.526Z,20.60
2023-04-19T16:44:03.382Z,22.90
2023-04-19T16:46:34.129Z,23.20
2023-04-19T16:49:05.024Z,21.60
2023-04-19T16:51:35.672Z,23.20
2023-04-19T16:54:06.509Z,20.70
2023-04-19T16:56:37.139Z,21.40
2023-04-19T16:59:07.793Z,21.50
2023-04-19T17:01:38.900Z,22.00
2023-04-19T17:04:09.921Z,23.20
2023-04-19T17:09:09.748Z,21.60
2023-04-19T17:11:40.361Z,22.30
2023-04-19T17:14:11.073Z,24.50
2023-04-19T17:16:41.832Z,29.00
2023-04-19T17:19:12.500Z,30.20
2023-04-19T17:21:43.861Z,27.40
2023-04-19T17:24:14.640Z,28.70
2023-04-19T17:26:45.630Z,30.00
2023-04-19T17:29:16.495Z,31.70
2023-04-19T17:34:16.566Z,29.70
2023-04-19T17:36:47.198Z,28.40
2023-04-19T17:39:18.254Z,27.60
2023-04-19T17:41:49.455Z,27.40
2023-04-19T17:44:20.126Z,33.20
2023-04-19T17:46:50.827Z,30.40
2023-04-19T17:49:21.532Z,26.90
2023-04-19T17:51:52.178Z,31.20
2023-04-19T17:54:22.859Z,27.30
2023-04-19T17:56:54.135Z,26.10
2023-04-19T17:59:24.948Z,22.40
2023-04-19T18:01:55.774Z,23.80
2023-04-19T18:04:26.792Z,24.00
2023-04-19T18:06:57.524Z,25.00
2023-04-19T18:09:28.264Z,30.10
2023-04-19T18:11:59.176Z,21.40
2023-04-19T18:14:29.947Z,27.90
2023-04-19T18:17:00.940Z,26.70
2023-04-19T18:19:31.613Z,24.00
2023-04-19T18:22:02.256Z,20.70
2023-04-19T18:24:33.526Z,21.00
2023-04-19T18:27:04.409Z,18.90
2023-04-19T18:29:35.041Z,18.20
2023-04-19T18:32:06.080Z,17.50
2023-04-19T18:37:15.873Z,22.60
2023-04-19T18:39:46.621Z,23.90
2023-04-19T18:42:17.717Z,27.50
2023-04-19T18:47:26.897Z,26.90
2023-04-19T18:50:05.299Z,26.00
2023-04-19T18:52:37.336Z,25.70
2023-04-19T18:55:21.563Z,23.40
2023-04-19T18:57:52.297Z,25.40
2023-04-19T19:00:23.004Z,28.50
2023-04-19T19:02:53.803Z,28.30
2023-04-19T19:05:24.925Z,32.10
2023-04-19T19:10:48.524Z,28.60
2023-04-19T19:13:18.288Z,28.60
2023-04-19T19:15:49.105Z,40.30
2023-04-19T19:18:19.846Z,39.50
2023-04-19T19:20:51.539Z,43.60
2023-04-19T19:23:34.684Z,39.00
2023-04-19T19:26:06.478Z,38.80
2023-04-19T19:28:37.479Z,39.60
2023-04-19T19:31:08.423Z,38.80
2023-04-19T19:33:41.059Z,45.80
2023-04-19T19:36:11.713Z,53.90
2023-04-19T19:38:42.449Z,47.50
2023-04-19T19:43:46.998Z,34.80
2023-04-19T19:46:18.192Z,31.40
2023-04-19T19:48:53.753Z,29.40
2023-04-19T19:53:58.893Z,38.20
2023-04-19T19:58:58.925Z,45.90
2023-04-19T20:01:29.646Z,47.40
2023-04-19T20:04:00.594Z,53.80
2023-04-19T20:09:04.880Z,50.10
2023-04-19T20:11:35.657Z,48.90
2023-04-19T20:14:06.359Z,52.90
2023-04-19T20:16:37.101Z,51.30
2023-04-19T20:19:08.657Z,51.90
2023-04-19T20:21:39.416Z,59.00
2023-04-19T20:24:10.458Z,60.70
2023-04-19T20:29:10.678Z,61.40
2023-04-19T20:31:41.734Z,68.60
2023-04-19T20:36:41.471Z,64.00
2023-04-19T20:39:12.142Z,63.90
2023-04-19T20:41:42.812Z,61.30
2023-04-19T20:44:13.445Z,64.30
2023-04-19T20:46:44.199Z,61.00
2023-04-19T20:49:15.060Z,63.00
2023-04-19T20:54:14.919Z,56.80
2023-04-19T20:56:47.019Z,57.20
2023-04-19T20:59:17.828Z,58.20
2023-04-19T21:04:18.056Z,49.50
2023-04-19T21:06:49.285Z,49.30
2023-04-19T21:09:19.944Z,45.20
2023-04-19T21:11:50.659Z,39.00
2023-04-19T21:14:21.375Z,34.70
2023-04-19T21:16:52.011Z,35.20
2023-04-19T21:19:22.672Z,34.80
2023-04-19T21:21:53.292Z,32.10
2023-04-19T21:24:23.893Z,30.80
2023-04-19T21:26:54.533Z,32.60
2023-04-19T21:29:25.198Z,35.30
2023-04-19T21:31:55.931Z,33.50
2023-04-19T21:34:26.636Z,34.30
2023-04-19T21:36:57.380Z,31.30
2023-04-19T21:39:28.104Z,34.50
2023-04-19T21:41:58.794Z,34.30
2023-04-19T21:44:29.438Z,32.80
2023-04-19T21:47:00.175Z,35.90
2023-04-19T21:49:31.034Z,33.70
2023-04-19T21:52:01.693Z,32.70
2023-04-19T21:54:34.323Z,33.40
2023-04-19T21:57:05.653Z,33.90
2023-04-19T21:59:37.695Z,30.60
2023-04-19T22:02:10.890Z,33.90
2023-04-19T22:04:41.720Z,38.60
2023-04-19T22:07:12.412Z,41.60
2023-04-19T22:09:43.017Z,44.00
2023-04-19T22:12:13.835Z,34.70
2023-04-19T22:14:44.612Z,30.40
2023-04-19T22:17:15.357Z,29.50
2023-04-19T22:19:46.303Z,33.50
2023-04-19T22:22:16.968Z,39.80
2023-04-19T22:27:24.270Z,37.50
2023-04-19T22:29:54.890Z,34.50
2023-04-19T22:32:25.580Z,34.30
2023-04-19T22:34:56.236Z,29.80
2023-04-19T22:37:26.986Z,26.80
2023-04-19T22:39:57.710Z,27.70
2023-04-19T22:42:28.367Z,22.60
2023-04-19T22:44:59.071Z,17.50
2023-04-19T22:47:29.959Z,17.70
2023-04-19T22:50:00.612Z,19.10
2023-04-19T22:52:31.309Z,14.00
2023-04-19T22:55:01.917Z,15.70
2023-04-19T22:57:32.554Z,14.90
2023-04-19T23:00:03.564Z,16.40
2023-04-19T23:05:03.855Z,14.80
2023-04-19T23:07:34.590Z,14.70
2023-04-19T23:10:07.017Z,13.30
2023-04-19T23:12:37.660Z,12.30
2023-04-19T23:15:12.712Z,13.80
2023-04-19T23:17:43.433Z,14.70
2023-04-19T23:20:14.470Z,14.30
2023-04-19T23:22:45.145Z,15.10
2023-04-19T23:25:15.783Z,14.80
2023-04-19T23:27:46.469Z,18.70
2023-04-19T23:30:17.929Z,17.40
2023-04-19T23:32:48.683Z,16.00
2023-04-19T23:35:19.351Z,17.40
2023-04-19T23:37:50.055Z,16.10
2023-04-19T23:40:21.256Z,17.00
2023-04-19T23:42:51.987Z,16.90
2023-04-19T23:45:22.905Z,15.80
2023-04-19T23:47:53.669Z,18.00
2023-04-19T23:50:24.539Z,20.60
2023-04-19T23:52:55.584Z,19.60
2023-04-19T23:57:55.353Z,19.20
